Ouagadougou International Airport

Airport
ICAO code: 
DFFD
IATA Code: 
OUA
Summary
ICAO Region: 
AFI
Territory: 
Location: 
Ouagadougou,
Serving: 
Ouagadougou
Elevation: 
1037 ft
Coordinates: 
Aerial View: 
12° 21' 13" N, 1° 30' 42.998" W
Metar
Observation
DFFD 041000Z 09009KT 060V120 4000 HZ NSC 32/06 Q1014 BECMG 6000 NSW
Station
Ouagadougou
Date/Time
2021-12-04 10:00:00
Wind direction
90°
Wind speed
09 kts
Lowest cloud amount
nil significant cloud
Temperature
32°C
Dew point
6°C
Humidity
19%
QNH
1014 hPa
Weather condition
n/a

Description

Ouagadougou International Airport is an airport located in the centre of the city of Ouagadougou in Burkina Faso.

Runways

Designator Length Width Surface Rops
04R/22L 1911 30 LAT Yes/Yes
04L/22R 3028 45 ASP Yes/Yes
Airport map: 
Aerial View: 

SKYbrary Partners:

Safety knowledge contributed by: